Station Historical Data
Daily Summary for July 4, 2017 Units:  English    Metric   Both
« Previous Day
Next Day »
Daily Weekly Monthly Yearly Custom
  High: Low: Average:
Temperature: 81.7 °F 57.2 °F 70.3 °F
Dew Point: 60.9 °F 49.7 °F 55.6 °F
Humidity: 91% 40% 63%
Wind Speed: 8.0mph 0.0mph 1.6mph
Wind Gust: 13.0mph - -
Wind- - East
Pressure: 30.15 in 30.06 in -
Precipitation: 0.00 in    
Historical Graphs
 
 
Tabular Data for July 4, 2017
Time Temperature Dew Point Pressure Wind Wind Speed Wind Gust Humidity Rainfall Rate (Hourly)
00:04 63.6 °F 58.7 °F 30.06 in Calm     84% 0.00 in
00:09 63.3 °F 58.4 °F 30.06 in Calm     84% 0.00 in
00:14 63.5 °F 58.9 °F 30.06 in Calm     85% 0.00 in
00:19 63.6 °F 59.0 °F 30.06 in Calm     85% 0.00 in
00:24 63.8 °F 59.2 °F 30.07 in Calm     85% 0.00 in
00:29 64.0 °F 59.1 °F 30.07 in Calm     84% 0.00 in
00:34 63.6 °F 58.7 °F 30.07 in Calm     84% 0.00 in
00:39 63.4 °F 58.5 °F 30.06 in Calm     84% 0.00 in
00:44 63.4 °F 58.5 °F 30.06 in Calm     84% 0.00 in
00:49 63.4 °F 58.8 °F 30.06 in Calm     85% 0.00 in
00:54 63.3 °F 58.4 °F 30.06 in Calm     84% 0.00 in
00:59 63.1 °F 58.5 °F 30.06 in Calm     85% 0.00 in
01:04 62.7 °F 58.1 °F 30.06 in Calm     85% 0.00 in
01:09 62.6 °F 58.0 °F 30.06 in Calm     85% 0.00 in
01:14 62.8 °F 58.2 °F 30.06 in Calm     85% 0.00 in
01:19 62.9 °F 58.3 °F 30.06 in Calm     85% 0.00 in
01:24 62.5 °F 57.9 °F 30.06 in Calm     85% 0.00 in
01:29 62.3 °F 58.1 °F 30.06 in Calm     86% 0.00 in
01:34 62.5 °F 58.3 °F 30.06 in Calm     86% 0.00 in
01:39 62.6 °F 58.0 °F 30.06 in Calm     85% 0.00 in
01:44 62.3 °F 57.7 °F 30.06 in Calm     85% 0.00 in
01:49 62.2 °F 57.6 °F 30.06 in Calm     85% 0.00 in
01:54 62.2 °F 57.6 °F 30.06 in Calm     85% 0.00 in
01:59 61.9 °F 57.3 °F 30.06 in Calm     85% 0.00 in
02:04 61.6 °F 57.4 °F 30.06 in Calm     86% 0.00 in
02:09 61.6 °F 57.4 °F 30.06 in Calm     86% 0.00 in
02:14 61.5 °F 57.3 °F 30.06 in Calm     86% 0.00 in
02:19 61.3 °F 57.1 °F 30.06 in Calm     86% 0.00 in
02:24 61.3 °F 57.4 °F 30.06 in Calm     87% 0.00 in
02:29 61.0 °F 57.1 °F 30.06 in Calm     87% 0.00 in
02:34 60.9 °F 57.0 °F 30.06 in Calm     87% 0.00 in
02:39 60.7 °F 56.8 °F 30.06 in Calm     87% 0.00 in
02:44 60.4 °F 56.5 °F 30.07 in Calm     87% 0.00 in
02:49 60.1 °F 56.2 °F 30.07 in Calm     87% 0.00 in
02:54 59.9 °F 56.3 °F 30.07 in Calm     88% 0.00 in
02:59 59.9 °F 56.3 °F 30.07 in Calm     88% 0.00 in
03:04 59.7 °F 56.1 °F 30.07 in Calm     88% 0.00 in
03:09 59.7 °F 56.1 °F 30.07 in Calm     88% 0.00 in
03:14 59.7 °F 56.5 °F 30.07 in Calm     89% 0.00 in
03:19 59.8 °F 56.6 °F 30.07 in Calm     89% 0.00 in
03:24 59.7 °F 56.5 °F 30.07 in Calm     89% 0.00 in
03:29 59.6 °F 56.4 °F 30.07 in Calm     89% 0.00 in
03:34 59.5 °F 56.6 °F 30.07 in Calm     90% 0.00 in
03:39 59.4 °F 56.2 °F 30.07 in Calm     89% 0.00 in
03:44 59.3 °F 56.1 °F 30.07 in Calm     89% 0.00 in
03:49 59.2 °F 56.0 °F 30.07 in Calm     89% 0.00 in
03:54 58.9 °F 56.0 °F 30.07 in Calm     90% 0.00 in
03:59 58.8 °F 55.9 °F 30.07 in Calm     90% 0.00 in
04:04 58.7 °F 55.8 °F 30.07 in Calm     90% 0.00 in
04:09 58.6 °F 55.7 °F 30.07 in Calm     90% 0.00 in
04:14 58.4 °F 55.5 °F 30.07 in Calm     90% 0.00 in
04:19 58.7 °F 55.8 °F 30.07 in Calm     90% 0.00 in
04:24 58.7 °F 55.8 °F 30.07 in Calm     90% 0.00 in
04:29 58.4 °F 55.5 °F 30.07 in Calm     90% 0.00 in
04:34 58.4 °F 55.8 °F 30.08 in Calm     91% 0.00 in
04:39 58.6 °F 56.0 °F 30.08 in Calm     91% 0.00 in
04:44 58.6 °F 55.7 °F 30.08 in Calm     90% 0.00 in
04:49 58.4 °F 55.5 °F 30.08 in Calm     90% 0.00 in
04:54 58.3 °F 55.4 °F 30.08 in Calm     90% 0.00 in
04:59 58.3 °F 55.4 °F 30.08 in Calm     90% 0.00 in
05:04 58.1 °F 55.2 °F 30.08 in Calm     90% 0.00 in
05:09 58.1 °F 55.2 °F 30.08 in Calm     90% 0.00 in
05:14 58.2 °F 55.6 °F 30.08 in Calm     91% 0.00 in
05:19 58.1 °F 55.2 °F 30.08 in Calm     90% 0.00 in
05:24 58.1 °F 55.2 °F 30.08 in Calm     90% 0.00 in
05:29 58.0 °F 55.1 °F 30.08 in Calm     90% 0.00 in
05:34 58.0 °F 55.1 °F 30.08 in Calm     90% 0.00 in
05:39 57.8 °F 54.9 °F 30.08 in Calm     90% 0.00 in
05:44 57.7 °F 54.8 °F 30.09 in Calm     90% 0.00 in
05:49 57.5 °F 54.6 °F 30.09 in Calm     90% 0.00 in
05:54 57.3 °F 54.4 °F 30.09 in Calm     90% 0.00 in
05:59 57.3 °F 54.7 °F 30.09 in Calm     91% 0.00 in
06:04 57.2 °F 54.3 °F 30.10 in Calm     90% 0.00 in
06:09 57.2 °F 54.6 °F 30.10 in Calm     91% 0.00 in
06:14 57.3 °F 54.7 °F 30.10 in Calm     91% 0.00 in
06:19 57.6 °F 55.0 °F 30.10 in Calm     91% 0.00 in
06:24 57.8 °F 55.2 °F 30.10 in Calm     91% 0.00 in
06:29 57.9 °F 55.3 °F 30.11 in Calm     91% 0.00 in
06:34 58.0 °F 55.4 °F 30.11 in Calm     91% 0.00 in
06:39 58.2 °F 55.6 °F 30.11 in Calm     91% 0.00 in
06:44 58.6 °F 56.0 °F 30.11 in Calm     91% 0.00 in
06:49 58.8 °F 55.9 °F 30.11 in Calm     90% 0.00 in
06:54 59.1 °F 56.2 °F 30.11 in Calm     90% 0.00 in
06:59 59.5 °F 56.6 °F 30.11 in Calm     90% 0.00 in
07:04 59.9 °F 56.6 °F 30.12 in Calm     89% 0.00 in
07:09 60.4 °F 56.8 °F 30.12 in Calm     88% 0.00 in
07:14 60.9 °F 57.3 °F 30.12 in Calm     88% 0.00 in
07:19 61.6 °F 57.7 °F 30.12 in Calm     87% 0.00 in
07:24 62.0 °F 57.4 °F 30.12 in Calm     85% 0.00 in
07:29 62.7 °F 57.8 °F 30.12 in Calm     84% 0.00 in
07:34 63.2 °F 57.9 °F 30.12 in Calm     83% 0.00 in
07:39 63.6 °F 58.0 °F 30.12 in Calm     82% 0.00 in
07:44 64.0 °F 58.4 °F 30.13 in Calm     82% 0.00 in
07:49 64.1 °F 58.5 °F 30.13 in Calm     82% 0.00 in
07:54 64.6 °F 58.3 °F 30.13 in Calm     80% 0.00 in
07:59 64.8 °F 58.5 °F 30.13 in Calm     80% 0.00 in
08:04 65.8 °F 58.7 °F 30.13 in Calm     78% 0.00 in
08:09 66.7 °F 58.9 °F 30.13 in Calm     76% 0.00 in
08:14 66.7 °F 58.9 °F 30.13 in Calm     76% 0.00 in
08:19 67.0 °F 58.4 °F 30.14 in ENE 1.0 mph 4.0 mph 74% 0.00 in
08:24 68.1 °F 59.9 °F 30.13 in ENE 1.0 mph 4.0 mph 75% 0.00 in
08:29 68.4 °F 59.4 °F 30.14 in Calm   3.0 mph 73% 0.00 in
08:34 68.7 °F 59.7 °F 30.14 in NE 2.0 mph 3.0 mph 73% 0.00 in
08:39 69.0 °F 59.2 °F 30.14 in SE 1.0 mph 3.0 mph 71% 0.00 in
08:44 69.4 °F 59.6 °F 30.14 in East 1.0 mph 4.0 mph 71% 0.00 in
08:49 69.9 °F 59.7 °F 30.14 in East 2.0 mph 4.0 mph 70% 0.00 in
08:54 69.8 °F 58.8 °F 30.14 in ENE 2.0 mph 4.0 mph 68% 0.00 in
08:59 70.3 °F 59.2 °F 30.14 in ENE 2.0 mph 5.0 mph 68% 0.00 in
09:04 70.3 °F 58.8 °F 30.14 in ENE 2.0 mph 5.0 mph 67% 0.00 in
09:09 70.6 °F 59.9 °F 30.14 in ENE 2.0 mph 5.0 mph 69% 0.00 in
09:14 71.2 °F 59.7 °F 30.14 in North 1.0 mph 3.0 mph 67% 0.00 in
09:19 71.9 °F 59.9 °F 30.14 in NNE 1.0 mph 3.0 mph 66% 0.00 in
09:24 71.6 °F 58.8 °F 30.14 in ENE 4.0 mph 5.0 mph 64% 0.00 in
09:29 71.8 °F 59.4 °F 30.14 in Calm   4.0 mph 65% 0.00 in
09:34 73.0 °F 59.7 °F 30.14 in SE 1.0 mph 5.0 mph 63% 0.00 in
09:39 72.1 °F 59.2 °F 30.14 in Calm   2.0 mph 64% 0.00 in
09:44 73.4 °F 58.2 °F 30.14 in Calm   2.0 mph 59% 0.00 in
09:49 73.1 °F 58.8 °F 30.13 in ENE 2.0 mph 7.0 mph 61% 0.00 in
09:54 73.2 °F 58.9 °F 30.13 in East 2.0 mph 7.0 mph 61% 0.00 in
09:59 73.7 °F 58.9 °F 30.13 in East 2.0 mph 4.0 mph 60% 0.00 in
10:04 74.2 °F 58.5 °F 30.13 in ENE 1.0 mph 4.0 mph 58% 0.00 in
10:09 74.5 °F 59.2 °F 30.13 in East 1.0 mph 4.0 mph 59% 0.00 in
10:14 74.7 °F 58.5 °F 30.13 in NE 3.0 mph 6.0 mph 57% 0.00 in
10:19 74.2 °F 58.9 °F 30.13 in ENE 2.0 mph 6.0 mph 59% 0.00 in
10:24 74.3 °F 60.9 °F 30.13 in WSW 2.0 mph 2.0 mph 63% 0.00 in
10:29 75.0 °F 59.7 °F 30.13 in NE 5.0 mph 7.0 mph 59% 0.00 in
10:34 74.7 °F 58.0 °F 30.13 in NNE 3.0 mph 7.0 mph 56% 0.00 in
10:39 75.2 °F 57.4 °F 30.14 in NW 2.0 mph 4.0 mph 54% 0.00 in
10:44 75.7 °F 57.4 °F 30.13 in NNE 2.0 mph 5.0 mph 53% 0.00 in
10:49 75.9 °F 59.1 °F 30.13 in North 2.0 mph 6.0 mph 56% 0.00 in
10:54 75.7 °F 59.4 °F 30.13 in East 2.0 mph 6.0 mph 57% 0.00 in
10:59 77.2 °F 58.7 °F 30.13 in SE 2.0 mph 5.0 mph 53% 0.00 in
11:04 76.9 °F 56.3 °F 30.13 in NE 5.0 mph 6.0 mph 49% 0.00 in
11:09 76.8 °F 57.8 °F 30.13 in WNW 4.0 mph 5.0 mph 52% 0.00 in
11:14 76.7 °F 56.1 °F 30.13 in WNW 2.0 mph 6.0 mph 49% 0.00 in
11:19 76.4 °F 57.5 °F 30.13 in NNW 3.0 mph 6.0 mph 52% 0.00 in
11:24 76.7 °F 56.1 °F 30.13 in NW 2.0 mph 6.0 mph 49% 0.00 in
11:29 76.6 °F 59.2 °F 30.12 in NW 2.0 mph 4.0 mph 55% 0.00 in
11:34 78.1 °F 58.5 °F 30.12 in NE 4.0 mph 5.0 mph 51% 0.00 in
11:39 77.5 °F 57.4 °F 30.12 in NE 3.0 mph 7.0 mph 50% 0.00 in
11:44 78.6 °F 60.0 °F 30.12 in NNE 2.0 mph 6.0 mph 53% 0.00 in
11:49 78.4 °F 57.7 °F 30.12 in East 1.0 mph 6.0 mph 49% 0.00 in
11:54 78.4 °F 58.8 °F 30.12 in ENE 2.0 mph 6.0 mph 51% 0.00 in
11:59 78.7 °F 57.4 °F 30.12 in NNE 2.0 mph 5.0 mph 48% 0.00 in
12:04 79.2 °F 57.8 °F 30.12 in North 3.0 mph 8.0 mph 48% 0.00 in
12:09 78.5 °F 57.7 °F 30.12 in NE 2.0 mph 8.0 mph 49% 0.00 in
12:14 78.4 °F 59.9 °F 30.12 in North 2.0 mph 7.0 mph 53% 0.00 in
12:19 78.8 °F 55.7 °F 30.12 in NW 2.0 mph 7.0 mph 45% 0.00 in
12:24 78.7 °F 56.2 °F 30.12 in NE 3.0 mph 8.0 mph 46% 0.00 in
12:29 78.5 °F 58.3 °F 30.12 in NNE 3.0 mph 8.0 mph 50% 0.00 in
12:34 79.1 °F 57.1 °F 30.12 in NNE 3.0 mph 9.0 mph 47% 0.00 in
12:39 78.9 °F 56.4 °F 30.12 in NNE 3.0 mph 7.0 mph 46% 0.00 in
12:44 78.6 °F 58.4 °F 30.11 in NNE 2.0 mph 8.0 mph 50% 0.00 in
12:49 77.5 °F 55.7 °F 30.12 in North 3.0 mph 9.0 mph 47% 0.00 in
12:54 78.3 °F 55.2 °F 30.11 in NE 3.0 mph 9.0 mph 45% 0.00 in
12:59 78.5 °F 52.8 °F 30.11 in NE 6.0 mph 10.0 mph 41% 0.00 in
13:04 77.3 °F 54.9 °F 30.11 in NE 4.0 mph 10.0 mph 46% 0.00 in
13:09 78.9 °F 57.0 °F 30.11 in South 3.0 mph 6.0 mph 47% 0.00 in
13:14 77.7 °F 55.9 °F 30.11 in North 2.0 mph 7.0 mph 47% 0.00 in
13:19 76.7 °F 53.1 °F 30.11 in North 3.0 mph 7.0 mph 44% 0.00 in
13:24 77.1 °F 55.9 °F 30.10 in North 3.0 mph 9.0 mph 48% 0.00 in
13:29 78.3 °F 54.6 °F 30.10 in NNE 3.0 mph 10.0 mph 44% 0.00 in
13:34 79.3 °F 57.3 °F 30.10 in NNE 3.0 mph 10.0 mph 47% 0.00 in
13:39 80.2 °F 55.7 °F 30.10 in NNE 3.0 mph 8.0 mph 43% 0.00 in
13:44 80.3 °F 57.6 °F 30.10 in North 2.0 mph 11.0 mph 46% 0.00 in
13:49 80.5 °F 55.9 °F 30.10 in NNE 3.0 mph 11.0 mph 43% 0.00 in
13:54 80.9 °F 55.7 °F 30.10 in North 3.0 mph 6.0 mph 42% 0.00 in
13:59 80.9 °F 54.3 °F 30.10 in NNW 3.0 mph 6.0 mph 40% 0.00 in
14:04 80.8 °F 55.6 °F 30.10 in Calm   6.0 mph 42% 0.00 in
14:09 80.7 °F 56.8 °F 30.10 in North 5.0 mph 5.0 mph 44% 0.00 in
14:14 78.4 °F 55.3 °F 30.10 in NNW 4.0 mph 4.0 mph 45% 0.00 in
14:19 77.4 °F 55.6 °F 30.10 in NNW 3.0 mph 7.0 mph 47% 0.00 in
14:24 77.1 °F 54.7 °F 30.10 in North 3.0 mph 8.0 mph 46% 0.00 in
14:29 77.2 °F 54.8 °F 30.10 in Calm   2.0 mph 46% 0.00 in
14:34 78.4 °F 59.3 °F 30.10 in ENE 3.0 mph 3.0 mph 52% 0.00 in
14:44 77.5 °F 55.1 °F 30.10 in ENE 2.0 mph 7.0 mph 46% 0.00 in
14:49 78.0 °F 57.9 °F 30.10 in NE 2.0 mph 9.0 mph 50% 0.00 in
14:54 78.3 °F 55.8 °F 30.09 in NE 3.0 mph 10.0 mph 46% 0.00 in
14:59 79.2 °F 57.8 °F 30.09 in NE 4.0 mph 10.0 mph 48% 0.00 in
15:04 81.0 °F 59.5 °F 30.09 in NNE 3.0 mph 8.0 mph 48% 0.00 in
15:09 81.6 °F 58.2 °F 30.09 in North 4.0 mph 11.0 mph 45% 0.00 in
15:14 81.2 °F 57.8 °F 30.09 in NNE 4.0 mph 13.0 mph 45% 0.00 in
15:19 80.5 °F 58.4 °F 30.09 in NE 4.0 mph 13.0 mph 47% 0.00 in
15:24 80.9 °F 57.6 °F 30.09 in NNW 1.0 mph 8.0 mph 45% 0.00 in
15:29 81.5 °F 58.7 °F 30.09 in NE 3.0 mph 11.0 mph 46% 0.00 in
15:34 81.5 °F 58.7 °F 30.09 in NE 4.0 mph 6.0 mph 46% 0.00 in
15:39 81.4 °F 58.6 °F 30.09 in ENE 4.0 mph 6.0 mph 46% 0.00 in
15:44 81.6 °F 57.6 °F 30.10 in ENE 2.0 mph 11.0 mph 44% 0.00 in
15:49 81.7 °F 57.7 °F 30.10 in NE 4.0 mph 11.0 mph 44% 0.00 in
15:54 81.2 °F 57.8 °F 30.10 in NE 4.0 mph 11.0 mph 45% 0.00 in
15:59 80.9 °F 58.2 °F 30.10 in North 4.0 mph 9.0 mph 46% 0.00 in
16:04 81.0 °F 56.4 °F 30.10 in East 3.0 mph 10.0 mph 43% 0.00 in
16:09 81.1 °F 57.7 °F 30.09 in ENE 7.0 mph 7.0 mph 45% 0.00 in
16:14 81.3 °F 58.5 °F 30.09 in NNW 8.0 mph 9.0 mph 46% 0.00 in
16:19 81.1 °F 57.7 °F 30.10 in North 4.0 mph 10.0 mph 45% 0.00 in
16:24 81.0 °F 57.7 °F 30.10 in NNW 4.0 mph 10.0 mph 45% 0.00 in
16:29 80.6 °F 57.9 °F 30.10 in NNW 3.0 mph 8.0 mph 46% 0.00 in
16:34 79.4 °F 56.2 °F 30.10 in North 3.0 mph 9.0 mph 45% 0.00 in
16:39 79.2 °F 58.4 °F 30.10 in North 3.0 mph 9.0 mph 49% 0.00 in
16:44 79.7 °F 57.1 °F 30.10 in NNE 3.0 mph 10.0 mph 46% 0.00 in
16:49 80.0 °F 54.8 °F 30.10 in NE 4.0 mph 10.0 mph 42% 0.00 in
16:54 79.8 °F 55.9 °F 30.10 in ENE 5.0 mph 10.0 mph 44% 0.00 in
16:59 79.6 °F 54.5 °F 30.10 in North 3.0 mph 9.0 mph 42% 0.00 in
17:04 78.8 °F 55.7 °F 30.10 in NE 4.0 mph 5.0 mph 45% 0.00 in
17:09 77.7 °F 54.7 °F 30.09 in East 2.0 mph 8.0 mph 45% 0.00 in
17:14 78.0 °F 56.1 °F 30.10 in ENE 3.0 mph 8.0 mph 47% 0.00 in
17:19 79.2 °F 55.4 °F 30.09 in ENE 4.0 mph 10.0 mph 44% 0.00 in
17:24 80.1 °F 56.2 °F 30.09 in NE 4.0 mph 10.0 mph 44% 0.00 in
17:29 79.3 °F 56.1 °F 30.09 in NNE 3.0 mph 9.0 mph 45% 0.00 in
17:34 78.7 °F 55.0 °F 30.09 in NNE 3.0 mph 9.0 mph 44% 0.00 in
17:39 77.9 °F 55.5 °F 30.09 in NNE 3.0 mph 9.0 mph 46% 0.00 in
17:44 78.0 °F 54.3 °F 30.09 in ENE 7.0 mph 11.0 mph 44% 0.00 in
17:49 78.8 °F 55.0 °F 30.09 in ENE 5.0 mph 12.0 mph 44% 0.00 in
17:54 79.0 °F 55.8 °F 30.09 in ENE 5.0 mph 12.0 mph 45% 0.00 in
17:59 79.1 °F 54.0 °F 30.09 in NE 4.0 mph 10.0 mph 42% 0.00 in
18:04 79.2 °F 55.4 °F 30.09 in NE 3.0 mph 7.0 mph 44% 0.00 in
18:09 79.4 °F 56.2 °F 30.09 in North 2.0 mph 5.0 mph 45% 0.00 in
18:14 79.1 °F 54.7 °F 30.09 in NNE 2.0 mph 9.0 mph 43% 0.00 in
18:19 78.4 °F 53.4 °F 30.09 in NNE 3.0 mph 9.0 mph 42% 0.00 in
18:24 77.8 °F 53.5 °F 30.09 in North 2.0 mph 7.0 mph 43% 0.00 in
18:29 78.3 °F 54.0 °F 30.09 in North 2.0 mph 6.0 mph 43% 0.00 in
18:34 78.1 °F 52.5 °F 30.09 in NE 4.0 mph 9.0 mph 41% 0.00 in
18:39 78.0 °F 53.0 °F 30.09 in NE 4.0 mph 9.0 mph 42% 0.00 in
18:44 77.5 °F 52.6 °F 30.09 in North 5.0 mph 6.0 mph 42% 0.00 in
18:49 77.4 °F 53.1 °F 30.09 in NE 3.0 mph 9.0 mph 43% 0.00 in
18:54 77.3 °F 52.4 °F 30.09 in NE 3.0 mph 9.0 mph 42% 0.00 in
18:59 77.2 °F 52.3 °F 30.09 in ENE 4.0 mph 9.0 mph 42% 0.00 in
19:04 76.8 °F 52.0 °F 30.09 in North 4.0 mph 10.0 mph 42% 0.00 in
19:09 76.7 °F 51.9 °F 30.10 in ENE 7.0 mph 9.0 mph 42% 0.00 in
19:14 76.7 °F 51.2 °F 30.10 in NE 5.0 mph 10.0 mph 41% 0.00 in
19:19 76.6 °F 51.8 °F 30.10 in NE 5.0 mph 10.0 mph 42% 0.00 in
19:24 76.4 °F 52.2 °F 30.10 in NE 3.0 mph 8.0 mph 43% 0.00 in
19:29 76.2 °F 51.4 °F 30.10 in NNE 3.0 mph 7.0 mph 42% 0.00 in
19:34 76.0 °F 51.2 °F 30.10 in ENE 2.0 mph 9.0 mph 42% 0.00 in
19:39 76.1 °F 52.0 °F 30.10 in ENE 4.0 mph 9.0 mph 43% 0.00 in
19:44 75.6 °F 50.9 °F 30.10 in NE 2.0 mph 5.0 mph 42% 0.00 in
19:49 75.5 °F 50.8 °F 30.10 in NE 3.0 mph 9.0 mph 42% 0.00 in
19:54 75.6 °F 51.5 °F 30.11 in NE 4.0 mph 10.0 mph 43% 0.00 in
19:59 75.1 °F 51.1 °F 30.11 in NE 3.0 mph 10.0 mph 43% 0.00 in
20:04 75.1 °F 50.4 °F 30.11 in NE 3.0 mph 9.0 mph 42% 0.00 in
20:09 75.0 °F 50.3 °F 30.11 in NE 7.0 mph 8.0 mph 42% 0.00 in
20:14 74.9 °F 50.3 °F 30.11 in NE 3.0 mph 10.0 mph 42% 0.00 in
20:19 74.6 °F 50.0 °F 30.11 in ENE 4.0 mph 10.0 mph 42% 0.00 in
20:24 74.5 °F 49.9 °F 30.11 in ENE 4.0 mph 7.0 mph 42% 0.00 in
20:29 74.4 °F 49.8 °F 30.11 in ENE 3.0 mph 6.0 mph 42% 0.00 in
20:34 74.0 °F 50.1 °F 30.11 in ENE 3.0 mph 5.0 mph 43% 0.00 in
20:39 73.9 °F 50.0 °F 30.11 in ENE 4.0 mph 7.0 mph 43% 0.00 in
20:44 73.7 °F 49.8 °F 30.11 in ENE 2.0 mph 5.0 mph 43% 0.00 in
20:49 73.4 °F 50.2 °F 30.11 in Calm   4.0 mph 44% 0.00 in
20:54 73.1 °F 49.9 °F 30.11 in ENE 1.0 mph 5.0 mph 44% 0.00 in
20:59 72.9 °F 49.7 °F 30.11 in NE 2.0 mph 5.0 mph 44% 0.00 in
21:04 72.6 °F 50.0 °F 30.12 in NE 2.0 mph 5.0 mph 45% 0.00 in
21:09 72.3 °F 50.4 °F 30.12 in NE 1.0 mph 4.0 mph 46% 0.00 in
21:14 71.7 °F 50.4 °F 30.12 in Calm     47% 0.00 in
21:19 71.2 °F 50.5 °F 30.12 in Calm     48% 0.00 in
21:24 70.6 °F 50.5 °F 30.12 in Calm     49% 0.00 in
21:29 70.3 °F 50.2 °F 30.12 in Calm     49% 0.00 in
21:34 70.2 °F 50.7 °F 30.12 in Calm     50% 0.00 in
21:39 70.0 °F 51.0 °F 30.12 in Calm     51% 0.00 in
21:44 69.7 °F 51.3 °F 30.13 in Calm     52% 0.00 in
21:49 69.4 °F 51.0 °F 30.13 in Calm     52% 0.00 in
21:54 69.3 °F 50.9 °F 30.13 in Calm     52% 0.00 in
21:59 69.0 °F 51.2 °F 30.13 in Calm     53% 0.00 in
22:04 69.0 °F 51.7 °F 30.13 in Calm     54% 0.00 in
22:09 69.0 °F 51.2 °F 30.13 in Calm     53% 0.00 in
22:14 69.1 °F 51.2 °F 30.13 in Calm     53% 0.00 in
22:19 69.2 °F 50.8 °F 30.13 in NE 1.0 mph 4.0 mph 52% 0.00 in
22:24 69.3 °F 50.9 °F 30.14 in NE 2.0 mph 4.0 mph 52% 0.00 in
22:29 69.0 °F 51.2 °F 30.14 in NE 2.0 mph 4.0 mph 53% 0.00 in
22:34 69.0 °F 50.6 °F 30.14 in Calm   3.0 mph 52% 0.00 in
22:39 68.7 °F 50.9 °F 30.14 in NE 1.0 mph 3.0 mph 53% 0.00 in
22:44 68.5 °F 50.7 °F 30.14 in NE 3.0 mph 4.0 mph 53% 0.00 in
22:49 68.5 °F 51.2 °F 30.14 in Calm   4.0 mph 54% 0.00 in
22:54 68.3 °F 51.0 °F 30.14 in NE 2.0 mph 4.0 mph 54% 0.00 in
22:59 68.2 °F 50.9 °F 30.14 in NE 1.0 mph 4.0 mph 54% 0.00 in
23:04 68.1 °F 50.8 °F 30.14 in NE 2.0 mph 3.0 mph 54% 0.00 in
23:09 67.9 °F 50.6 °F 30.14 in Calm   2.0 mph 54% 0.00 in
23:14 67.5 °F 50.8 °F 30.14 in Calm   3.0 mph 55% 0.00 in
23:19 67.2 °F 50.5 °F 30.14 in ENE 2.0 mph 2.0 mph 55% 0.00 in
23:24 66.7 °F 51.0 °F 30.14 in Calm   2.0 mph 57% 0.00 in
23:29 66.5 °F 50.8 °F 30.14 in Calm   2.0 mph 57% 0.00 in
23:34 66.3 °F 51.1 °F 30.14 in Calm     58% 0.00 in
23:39 65.9 °F 51.2 °F 30.15 in Calm     59% 0.00 in
23:44 65.4 °F 51.1 °F 30.14 in Calm     60% 0.00 in
23:49 65.2 °F 51.0 °F 30.14 in Calm     60% 0.00 in
23:54 65.3 °F 51.5 °F 30.14 in Calm     61% 0.00 in
23:59 65.0 °F 51.2 °F 30.14 in Calm     61% 0.00 in
Buffalo, New York, USA
Compliments of Weather Underground - 2.5 mb